Mississippi Star — 9HA2441 — position and weather

sailwx.info

Track history (hours):
 
Tides and Currents Weather Stations Pressure Air Temp Water Temp Dewpoint Dewpoint Depression Visibility Wind Speed Wind Dir Waves Ship Positions

Mississippi Star

Last reported at 2016-Aug-26 16:33 UTC. Time now 2016-Aug-26 17:26 UTC.
Position N 52°26' E 003°51'.

Length 128 m; draft 8.2 m.

Type: Ship. MMSI: 248621000.

Date/timePositionNaut miles runAvg speedWind from/ knotsBaromVisibWave heightAir tempDewpointWater temp
2016-Aug-26 16:33N 52°26' E 003°51'1111.3
2016-Aug-26 15:33N 52°23' E 003°33'1110.8
2016-Aug-26 14:33N 52°15' E 003°21'1110.8
2016-Aug-26 13:33N 52°07' E 003°09'1110.5
2016-Aug-26 12:33N 51°60' E 002°57'1111.1
2016-Aug-26 11:33N 51°52' E 002°45'1211.6
2016-Aug-26 10:33N 51°43' E 002°32'1212.0
2016-Aug-26 09:33N 51°34' E 002°20'1312.5
2016-Aug-26 08:33N 51°24' E 002°07'1211.9
2016-Aug-26 07:34N 51°13' E 002°01'1413.7
2016-Aug-26 06:34N 51°05' E 001°43'3314.0
2016-Aug-26 04:14N 50°38' E 001°15'1013.2
2016-Aug-26 03:27N 50°31' E 001°02'1313.4
2016-Aug-26 02:31N 50°27' E 000°43'1413.8
2016-Aug-26 01:32N 50°24' E 000°22'1313.6
2016-Aug-26 00:33N 50°22' E 000°02'1312.7
2016-Aug-25 23:33N 50°26' W 000°17'1212.3
2016-Aug-25 22:33N 50°32' W 000°33'1212.1
2016-Aug-25 21:33N 50°38' W 000°50'1211.6
2016-Aug-25 20:33N 50°44' W 001°05'1010.0
2016-Aug-25 19:33N 50°50' W 001°19'1 0.0
2016-Aug-24 19:30N 50°51' W 001°20'1 0.8
2016-Aug-24 18:33N 50°50' W 001°19'9 8.6
2016-Aug-24 17:33N 50°46' W 001°08'5 4.6
2016-Aug-24 16:33N 50°43' W 001°02'0 0.0
2016-Aug-24 15:33N 50°43' W 001°02'0 0.0
2016-Aug-24 14:33N 50°43' W 001°02'0 0.0
2016-Aug-24 13:33N 50°43' W 001°02'0 0.1
2016-Aug-24 12:33N 50°43' W 001°02'0 0.0
2016-Aug-24 11:33N 50°43' W 001°02'0 0.0
2016-Aug-24 10:33N 50°43' W 001°02'0 0.0
2016-Aug-24 09:33N 50°43' W 001°02'0 0.0
2016-Aug-24 08:33N 50°43' W 001°02'0 0.0
2016-Aug-24 07:33N 50°43' W 001°02'0 0.0
2016-Aug-24 06:34N 50°43' W 001°02'2211.0
2016-Aug-24 04:33N 50°34' W 000°30'1313.3
2016-Aug-24 03:33N 50°31' W 000°09'1212.1
2016-Aug-24 02:33N 50°33' E 000°10'1111.2
2016-Aug-24 01:33N 50°36' E 000°27'2611.0
2016-Aug-23 23:12N 50°50' E 001°01'813.1
2016-Aug-23 22:33N 50°55' E 001°11'1414.2
2016-Aug-23 21:34N 51°04' E 001°29'1313.4
2016-Aug-23 20:33N 51°13' E 001°45'1211.7
2016-Aug-23 19:33N 51°23' E 001°54'1110.7
2016-Aug-23 18:33N 51°32' E 002°04'1010.2
2016-Aug-23 17:33N 51°40' E 002°15'1010.1
2016-Aug-23 16:33N 51°48' E 002°25'2812.1
2016-Aug-23 14:16N 52°08' E 002°55'1115.3
2016-Aug-23 13:33N 52°16' E 003°07'1413.9
2016-Aug-23 12:33N 52°25' E 003°25'1515.3
2016-Aug-23 11:33N 52°31' E 003°48'1312.7
2016-Aug-23 10:34N 52°31' E 004°09'1110.9
2016-Aug-23 09:34N 52°29' E 004°27'6 6.1
2016-Aug-23 08:33N 52°28' E 004°37'6 5.8
2016-Aug-23 07:34N 52°26' E 004°45'1 0.1
2016-Aug-22 11:32N 52°25' E 004°46'2 1.7
2016-Aug-22 10:34N 52°26' E 004°45'5 5.5
2016-Aug-22 09:33N 52°28' E 004°36'3 3.1
2016-Aug-22 08:33N 52°28' E 004°31'1010.4
2016-Aug-22 07:33N 52°29' E 004°14'4 3.9
2016-Aug-22 06:29N 52°28' E 004°07'0 0.0
2016-Aug-22 05:31N 52°28' E 004°07'0 0.0
2016-Aug-22 04:26N 52°28' E 004°07'0 0.0
2016-Aug-22 03:17N 52°28' E 004°08'0 0.0
2016-Aug-22 02:32N 52°28' E 004°08'0 0.1
2016-Aug-22 01:31N 52°28' E 004°08'4 4.2
2016-Aug-22 00:33N 52°32' E 004°07'1312.3
2016-Aug-21 23:31N 52°44' E 003°59'1212.4
2016-Aug-21 22:33N 52°55' E 003°60'1211.9
2016-Aug-21 21:33N 53°04' E 004°13'1111.1
2016-Aug-21 20:33N 53°12' E 004°26'1310.5
2016-Aug-21 19:21N 53°24' E 004°33'8 9.5
2016-Aug-21 18:33N 53°30' E 004°41'1010.2
2016-Aug-21 17:33N 53°33' E 004°57'1111.4
2016-Aug-21 16:33N 53°37' E 005°15'1212.2
2016-Aug-21 15:33N 53°41' E 005°35'1212.0
2016-Aug-21 14:33N 53°45' E 005°54'1211.4
2016-Aug-21 13:32N 53°49' E 006°13'1111.0
2016-Aug-21 12:33N 53°51' E 006°31'1010.2
2016-Aug-21 11:33N 53°54' E 006°47'10 9.8
2016-Aug-21 10:33N 53°56' E 007°03'10 9.8
2016-Aug-21 09:33N 53°59' E 007°20'10 9.9
2016-Aug-21 08:33N 54°01' E 007°36'1110.8
2016-Aug-21 07:33N 54°01' E 007°54'1211.8
2016-Aug-21 06:33N 54°00' E 008°14'1413.6
2016-Aug-21 05:33N 53°57' E 008°37'1312.6
2016-Aug-21 04:33N 53°51' E 008°55'9 8.6
2016-Aug-21 03:33N 53°54' E 009°09'1 1.2
2016-Aug-21 02:33N 53°54' E 009°10'8 7.7
2016-Aug-21 01:33N 54°01' E 009°18'8 8.0
2016-Aug-21 00:33N 54°09' E 009°21'8 7.3
2016-Aug-20 23:31N 54°12' E 009°33'5 5.8
2016-Aug-20 22:33N 54°16' E 009°38'19 6.2
2016-Aug-20 19:33N 54°22' E 010°09'1 1.5
2016-Aug-20 18:33N 54°23' E 010°11'1010.3
2016-Aug-20 17:33N 54°31' E 010°21'1111.4
2016-Aug-20 16:33N 54°35' E 010°40'1211.5
2016-Aug-20 15:33N 54°36' E 010°60'1212.0
2016-Aug-20 14:33N 54°34' E 011°20'1212.2
2016-Aug-20 13:33N 54°28' E 011°39'1211.7
2016-Aug-20 12:33N 54°26' E 011°58'1010.3
2016-Aug-20 11:33N 54°32' E 012°12'1411.6
2016-Aug-20 10:23N 54°42' E 012°29'1012.3
2016-Aug-20 09:33N 54°48' E 012°44'1111.4
2016-Aug-20 08:33N 54°47' E 013°03'1211.9
2016-Aug-20 07:34N 54°47' E 013°24'1212.1
2016-Aug-20 06:33N 54°46' E 013°45'1312.8
2016-Aug-20 05:33N 54°42' E 014°06'1312.7
2016-Aug-20 04:33N 54°38' E 014°26'1312.7
2016-Aug-20 03:33N 54°39' E 014°48'1212.3
2016-Aug-20 02:33N 54°42' E 015°09'1212.3
2016-Aug-20 01:33N 54°44' E 015°30'1212.2
2016-Aug-20 00:33N 54°45' E 015°51'1212.1
2016-Aug-19 23:33N 54°47' E 016°12'1212.2
2016-Aug-19 22:33N 54°49' E 016°33'5412.3
2016-Aug-19 18:12N 54°57' E 018°05'812.2
2016-Aug-19 17:33N 54°58' E 018°19'1211.9
2016-Aug-19 16:33N 54°57' E 018°40'1212.3
2016-Aug-19 15:33N 54°50' E 018°58'1212.2
2016-Aug-19 14:33N 54°40' E 019°08'1212.0
2016-Aug-19 13:33N 54°29' E 019°01'1110.8
2016-Aug-19 12:33N 54°24' E 018°44'1 0.7
2016-Aug-19 11:32N 54°24' E 018°43'0 0.0
2016-Aug-18 11:34N 54°24' E 018°43'7 7.1
2016-Aug-18 10:34N 54°29' E 018°53'1 0.8
2016-Aug-18 09:34N 54°28' E 018°52'2 2.4
2016-Aug-18 08:34N 54°28' E 018°56'1110.7
2016-Aug-18 07:34N 54°38' E 019°04'1211.5
2016-Aug-18 06:34N 54°49' E 019°01'1211.9
2016-Aug-18 05:34N 55°01' E 019°02'1211.8
2016-Aug-18 04:32N 55°13' E 019°03'  
Track history (hours):
 
Tides and Currents Weather Stations Pressure Air Temp Water Temp Dewpoint Dewpoint Depression Visibility Wind Speed Wind Dir Waves Ship Positions

Mississippi Star

Last reported at 2016-Aug-26 16:33 UTC. Time now 2016-Aug-26 17:26 UTC.
Position N 52°26' E 003°51'.

Length 128 m; draft 8.2 m.

Type: Ship. MMSI: 248621000.

Date/timePositionNaut miles runAvg speedWind from/ knotsBaromVisibWave heightAir tempDewpointWater temp
2016-Aug-26 16:33N 52°26' E 003°51'1111.3
2016-Aug-26 15:33N 52°23' E 003°33'1110.8
2016-Aug-26 14:33N 52°15' E 003°21'1110.8
2016-Aug-26 13:33N 52°07' E 003°09'1110.5
2016-Aug-26 12:33N 51°60' E 002°57'1111.1
2016-Aug-26 11:33N 51°52' E 002°45'1211.6
2016-Aug-26 10:33N 51°43' E 002°32'1212.0
2016-Aug-26 09:33N 51°34' E 002°20'1312.5
2016-Aug-26 08:33N 51°24' E 002°07'1211.9
2016-Aug-26 07:34N 51°13' E 002°01'1413.7
2016-Aug-26 06:34N 51°05' E 001°43'3314.0
2016-Aug-26 04:14N 50°38' E 001°15'1013.2
2016-Aug-26 03:27N 50°31' E 001°02'1313.4
2016-Aug-26 02:31N 50°27' E 000°43'1413.8
2016-Aug-26 01:32N 50°24' E 000°22'1313.6
2016-Aug-26 00:33N 50°22' E 000°02'1312.7
2016-Aug-25 23:33N 50°26' W 000°17'1212.3
2016-Aug-25 22:33N 50°32' W 000°33'1212.1
2016-Aug-25 21:33N 50°38' W 000°50'1211.6
2016-Aug-25 20:33N 50°44' W 001°05'1010.0
2016-Aug-25 19:33N 50°50' W 001°19'1 0.0
2016-Aug-24 19:30N 50°51' W 001°20'1 0.8
2016-Aug-24 18:33N 50°50' W 001°19'9 8.6
2016-Aug-24 17:33N 50°46' W 001°08'5 4.6
2016-Aug-24 16:33N 50°43' W 001°02'0 0.0
2016-Aug-24 15:33N 50°43' W 001°02'0 0.0
2016-Aug-24 14:33N 50°43' W 001°02'0 0.0
2016-Aug-24 13:33N 50°43' W 001°02'0 0.1
2016-Aug-24 12:33N 50°43' W 001°02'0 0.0
2016-Aug-24 11:33N 50°43' W 001°02'0 0.0
2016-Aug-24 10:33N 50°43' W 001°02'0 0.0
2016-Aug-24 09:33N 50°43' W 001°02'0 0.0
2016-Aug-24 08:33N 50°43' W 001°02'0 0.0
2016-Aug-24 07:33N 50°43' W 001°02'0 0.0
2016-Aug-24 06:34N 50°43' W 001°02'2211.0
2016-Aug-24 04:33N 50°34' W 000°30'1313.3
2016-Aug-24 03:33N 50°31' W 000°09'1212.1
2016-Aug-24 02:33N 50°33' E 000°10'1111.2
2016-Aug-24 01:33N 50°36' E 000°27'2611.0
2016-Aug-23 23:12N 50°50' E 001°01'813.1
2016-Aug-23 22:33N 50°55' E 001°11'1414.2
2016-Aug-23 21:34N 51°04' E 001°29'1313.4
2016-Aug-23 20:33N 51°13' E 001°45'1211.7
2016-Aug-23 19:33N 51°23' E 001°54'1110.7
2016-Aug-23 18:33N 51°32' E 002°04'1010.2
2016-Aug-23 17:33N 51°40' E 002°15'1010.1
2016-Aug-23 16:33N 51°48' E 002°25'2812.1
2016-Aug-23 14:16N 52°08' E 002°55'1115.3
2016-Aug-23 13:33N 52°16' E 003°07'1413.9
2016-Aug-23 12:33N 52°25' E 003°25'1515.3
2016-Aug-23 11:33N 52°31' E 003°48'1312.7
2016-Aug-23 10:34N 52°31' E 004°09'1110.9
2016-Aug-23 09:34N 52°29' E 004°27'6 6.1
2016-Aug-23 08:33N 52°28' E 004°37'6 5.8
2016-Aug-23 07:34N 52°26' E 004°45'1 0.1
2016-Aug-22 11:32N 52°25' E 004°46'2 1.7
2016-Aug-22 10:34N 52°26' E 004°45'5 5.5
2016-Aug-22 09:33N 52°28' E 004°36'3 3.1
2016-Aug-22 08:33N 52°28' E 004°31'1010.4
2016-Aug-22 07:33N 52°29' E 004°14'4 3.9
2016-Aug-22 06:29N 52°28' E 004°07'0 0.0
2016-Aug-22 05:31N 52°28' E 004°07'0 0.0
2016-Aug-22 04:26N 52°28' E 004°07'0 0.0
2016-Aug-22 03:17N 52°28' E 004°08'0 0.0
2016-Aug-22 02:32N 52°28' E 004°08'0 0.1
2016-Aug-22 01:31N 52°28' E 004°08'4 4.2
2016-Aug-22 00:33N 52°32' E 004°07'1312.3
2016-Aug-21 23:31N 52°44' E 003°59'1212.4
2016-Aug-21 22:33N 52°55' E 003°60'1211.9
2016-Aug-21 21:33N 53°04' E 004°13'1111.1
2016-Aug-21 20:33N 53°12' E 004°26'1310.5
2016-Aug-21 19:21N 53°24' E 004°33'8 9.5
2016-Aug-21 18:33N 53°30' E 004°41'1010.2
2016-Aug-21 17:33N 53°33' E 004°57'1111.4
2016-Aug-21 16:33N 53°37' E 005°15'1212.2
2016-Aug-21 15:33N 53°41' E 005°35'1212.0
2016-Aug-21 14:33N 53°45' E 005°54'1211.4
2016-Aug-21 13:32N 53°49' E 006°13'1111.0
2016-Aug-21 12:33N 53°51' E 006°31'1010.2
2016-Aug-21 11:33N 53°54' E 006°47'10 9.8
2016-Aug-21 10:33N 53°56' E 007°03'10 9.8
2016-Aug-21 09:33N 53°59' E 007°20'10 9.9
2016-Aug-21 08:33N 54°01' E 007°36'1110.8
2016-Aug-21 07:33N 54°01' E 007°54'1211.8
2016-Aug-21 06:33N 54°00' E 008°14'1413.6
2016-Aug-21 05:33N 53°57' E 008°37'1312.6
2016-Aug-21 04:33N 53°51' E 008°55'9 8.6
2016-Aug-21 03:33N 53°54' E 009°09'1 1.2
2016-Aug-21 02:33N 53°54' E 009°10'8 7.7
2016-Aug-21 01:33N 54°01' E 009°18'8 8.0
2016-Aug-21 00:33N 54°09' E 009°21'8 7.3
2016-Aug-20 23:31N 54°12' E 009°33'5 5.8
2016-Aug-20 22:33N 54°16' E 009°38'19 6.2
2016-Aug-20 19:33N 54°22' E 010°09'1 1.5
2016-Aug-20 18:33N 54°23' E 010°11'1010.3
2016-Aug-20 17:33N 54°31' E 010°21'1111.4
2016-Aug-20 16:33N 54°35' E 010°40'1211.5
2016-Aug-20 15:33N 54°36' E 010°60'1212.0
2016-Aug-20 14:33N 54°34' E 011°20'1212.2
2016-Aug-20 13:33N 54°28' E 011°39'1211.7
2016-Aug-20 12:33N 54°26' E 011°58'1010.3
2016-Aug-20 11:33N 54°32' E 012°12'1411.6
2016-Aug-20 10:23N 54°42' E 012°29'1012.3
2016-Aug-20 09:33N 54°48' E 012°44'1111.4
2016-Aug-20 08:33N 54°47' E 013°03'1211.9
2016-Aug-20 07:34N 54°47' E 013°24'1212.1
2016-Aug-20 06:33N 54°46' E 013°45'1312.8
2016-Aug-20 05:33N 54°42' E 014°06'1312.7
2016-Aug-20 04:33N 54°38' E 014°26'1312.7
2016-Aug-20 03:33N 54°39' E 014°48'1212.3
2016-Aug-20 02:33N 54°42' E 015°09'1212.3
2016-Aug-20 01:33N 54°44' E 015°30'1212.2
2016-Aug-20 00:33N 54°45' E 015°51'1212.1
2016-Aug-19 23:33N 54°47' E 016°12'1212.2
2016-Aug-19 22:33N 54°49' E 016°33'5412.3
2016-Aug-19 18:12N 54°57' E 018°05'812.2
2016-Aug-19 17:33N 54°58' E 018°19'1211.9
2016-Aug-19 16:33N 54°57' E 018°40'1212.3
2016-Aug-19 15:33N 54°50' E 018°58'1212.2
2016-Aug-19 14:33N 54°40' E 019°08'1212.0
2016-Aug-19 13:33N 54°29' E 019°01'1110.8
2016-Aug-19 12:33N 54°24' E 018°44'1 0.7
2016-Aug-19 11:32N 54°24' E 018°43'0 0.0
2016-Aug-18 11:34N 54°24' E 018°43'7 7.1
2016-Aug-18 10:34N 54°29' E 018°53'1 0.8
2016-Aug-18 09:34N 54°28' E 018°52'2 2.4
2016-Aug-18 08:34N 54°28' E 018°56'1110.7
2016-Aug-18 07:34N 54°38' E 019°04'1211.5
2016-Aug-18 06:34N 54°49' E 019°01'1211.9
2016-Aug-18 05:34N 55°01' E 019°02'1211.8
2016-Aug-18 04:32N 55°13' E 019°03'  

Dump ship's entire track history